sensor_id;sensor_type;location;lat;lon;timestamp;pressure;altitude;pressure_sealevel;temperature;humidity
41230;BME280;26964;50.428;19.218;2023-02-28T00:01:16;1031.7;;;-1.8;67.7
41230;BME280;26964;50.428;19.218;2023-02-28T00:06:15;1031.8;;;-1.8;67.7
41230;BME280;26964;50.428;19.218;2023-02-28T00:11:15;1031.7;;;-1.9;67.7
41230;BME280;26964;50.428;19.218;2023-02-28T00:16:17;1031.7;;;-1.9;67.8
41230;BME280;26964;50.428;19.218;2023-02-28T00:21:16;1031.8;;;-1.9;67.8
41230;BME280;26964;50.428;19.218;2023-02-28T00:26:15;1032.0;;;-1.9;67.8
41230;BME280;26964;50.428;19.218;2023-02-28T00:31:15;1031.9;;;-2.0;67.9
41230;BME280;26964;50.428;19.218;2023-02-28T00:36:16;1031.8;;;-2.0;67.9
41230;BME280;26964;50.428;19.218;2023-02-28T00:41:16;1031.8;;;-2.0;67.9
41230;BME280;26964;50.428;19.218;2023-02-28T00:46:15;1031.7;;;-2.1;67.9
41230;BME280;26964;50.428;19.218;2023-02-28T00:51:16;1031.8;;;-2.1;67.9
41230;BME280;26964;50.428;19.218;2023-02-28T00:56:15;1031.8;;;-2.1;67.9
41230;BME280;26964;50.428;19.218;2023-02-28T01:01:15;1031.8;;;-2.2;67.9
41230;BME280;26964;50.428;19.218;2023-02-28T01:06:15;1031.8;;;-2.2;68.0
41230;BME280;26964;50.428;19.218;2023-02-28T01:11:17;1031.8;;;-2.3;68.0
41230;BME280;26964;50.428;19.218;2023-02-28T01:16:15;1031.8;;;-2.3;68.1
41230;BME280;26964;50.428;19.218;2023-02-28T01:21:16;1031.7;;;-2.3;68.2
41230;BME280;26964;50.428;19.218;2023-02-28T01:26:17;1031.8;;;-2.4;68.2
41230;BME280;26964;50.428;19.218;2023-02-28T01:31:15;1031.8;;;-2.4;68.3
41230;BME280;26964;50.428;19.218;2023-02-28T01:36:17;1031.6;;;-2.4;68.3
41230;BME280;26964;50.428;19.218;2023-02-28T01:41:17;1031.8;;;-2.4;68.3
41230;BME280;26964;50.428;19.218;2023-02-28T01:46:16;1031.8;;;-2.4;68.4
41230;BME280;26964;50.428;19.218;2023-02-28T01:51:20;1031.7;;;-2.4;68.3
41230;BME280;26964;50.428;19.218;2023-02-28T01:56:19;1031.7;;;-2.4;68.4
41230;BME280;26964;50.428;19.218;2023-02-28T02:01:15;1031.7;;;-2.5;68.4
41230;BME280;26964;50.428;19.218;2023-02-28T02:06:16;1031.7;;;-2.5;68.4
41230;BME280;26964;50.428;19.218;2023-02-28T02:11:17;1031.7;;;-2.5;68.5
41230;BME280;26964;50.428;19.218;2023-02-28T02:36:19;1031.7;;;-2.7;68.6
41230;BME280;26964;50.428;19.218;2023-02-28T02:41:19;1031.6;;;-2.7;68.6
41230;BME280;26964;50.428;19.218;2023-02-28T02:46:19;1031.6;;;-2.7;68.7
41230;BME280;26964;50.428;19.218;2023-02-28T02:51:16;1031.5;;;-2.8;68.7
41230;BME280;26964;50.428;19.218;2023-02-28T02:56:17;1031.5;;;-2.8;68.6
41230;BME280;26964;50.428;19.218;2023-02-28T03:01:19;1031.5;;;-2.9;68.7
41230;BME280;26964;50.428;19.218;2023-02-28T03:06:15;1031.5;;;-3.0;68.7
41230;BME280;26964;50.428;19.218;2023-02-28T03:11:15;1031.5;;;-3.0;68.7
41230;BME280;26964;50.428;19.218;2023-02-28T03:21:20;1031.5;;;-3.2;68.7
41230;BME280;26964;50.428;19.218;2023-02-28T03:26:19;1031.6;;;-3.3;68.8
41230;BME280;26964;50.428;19.218;2023-02-28T03:31:18;1031.6;;;-3.3;68.9
41230;BME280;26964;50.428;19.218;2023-02-28T03:36:19;1031.6;;;-3.4;68.9
41230;BME280;26964;50.428;19.218;2023-02-28T03:41:17;1031.7;;;-3.5;68.9
41230;BME280;26964;50.428;19.218;2023-02-28T03:46:19;1031.6;;;-3.5;68.9
41230;BME280;26964;50.428;19.218;2023-02-28T03:51:17;1031.7;;;-3.6;68.8
41230;BME280;26964;50.428;19.218;2023-02-28T03:56:17;1031.7;;;-3.7;68.9
41230;BME280;26964;50.428;19.218;2023-02-28T04:01:19;1031.8;;;-3.8;68.9
41230;BME280;26964;50.428;19.218;2023-02-28T04:06:16;1031.9;;;-3.8;68.9
41230;BME280;26964;50.428;19.218;2023-02-28T04:11:21;1031.9;;;-3.9;68.9
41230;BME280;26964;50.428;19.218;2023-02-28T04:16:15;1031.8;;;-4.1;69.0
41230;BME280;26964;50.428;19.218;2023-02-28T04:21:16;1031.8;;;-4.1;69.2
41230;BME280;26964;50.428;19.218;2023-02-28T04:26:15;1031.9;;;-4.2;69.2
41230;BME280;26964;50.428;19.218;2023-02-28T04:31:15;1031.9;;;-4.2;69.3
41230;BME280;26964;50.428;19.218;2023-02-28T04:36:15;1031.9;;;-4.3;69.3
41230;BME280;26964;50.428;19.218;2023-02-28T04:41:15;1032.0;;;-4.3;69.3
41230;BME280;26964;50.428;19.218;2023-02-28T04:46:15;1032.0;;;-4.4;69.4
41230;BME280;26964;50.428;19.218;2023-02-28T04:51:16;1032.0;;;-4.4;69.4
41230;BME280;26964;50.428;19.218;2023-02-28T04:56:16;1032.1;;;-4.4;69.4
41230;BME280;26964;50.428;19.218;2023-02-28T05:01:20;1032.0;;;-4.4;69.5
41230;BME280;26964;50.428;19.218;2023-02-28T05:06:15;1032.1;;;-4.5;69.5
41230;BME280;26964;50.428;19.218;2023-02-28T05:11:18;1032.2;;;-4.5;69.5
41230;BME280;26964;50.428;19.218;2023-02-28T05:16:15;1032.1;;;-4.5;69.6
41230;BME280;26964;50.428;19.218;2023-02-28T05:26:14;1032.2;;;-4.5;69.7
41230;BME280;26964;50.428;19.218;2023-02-28T05:31:15;1032.3;;;-4.5;69.8
41230;BME280;26964;50.428;19.218;2023-02-28T05:36:15;1032.4;;;-4.5;69.8
41230;BME280;26964;50.428;19.218;2023-02-28T05:41:15;1032.4;;;-4.5;69.9
41230;BME280;26964;50.428;19.218;2023-02-28T05:46:15;1032.4;;;-4.5;69.9
41230;BME280;26964;50.428;19.218;2023-02-28T05:51:15;1032.5;;;-4.5;69.9
41230;BME280;26964;50.428;19.218;2023-02-28T05:56:15;1032.5;;;-4.5;69.9
41230;BME280;26964;50.428;19.218;2023-02-28T06:06:15;1032.6;;;-4.5;70.0
41230;BME280;26964;50.428;19.218;2023-02-28T06:11:14;1032.8;;;-4.5;70.1
41230;BME280;26964;50.428;19.218;2023-02-28T06:16:14;1032.8;;;-4.4;70.1
41230;BME280;26964;50.428;19.218;2023-02-28T06:21:15;1032.7;;;-4.4;70.2
41230;BME280;26964;50.428;19.218;2023-02-28T06:26:15;1032.8;;;-4.3;70.3
41230;BME280;26964;50.428;19.218;2023-02-28T06:31:17;1032.9;;;-4.2;70.4
41230;BME280;26964;50.428;19.218;2023-02-28T06:36:15;1032.9;;;-4.1;70.5
41230;BME280;26964;50.428;19.218;2023-02-28T06:41:14;1032.9;;;-3.9;70.5
41230;BME280;26964;50.428;19.218;2023-02-28T06:46:14;1032.9;;;-3.7;70.7
41230;BME280;26964;50.428;19.218;2023-02-28T06:51:17;1032.9;;;-3.6;70.7
41230;BME280;26964;50.428;19.218;2023-02-28T06:56:15;1032.9;;;-3.5;70.6
41230;BME280;26964;50.428;19.218;2023-02-28T07:01:14;1032.9;;;-3.3;70.7
41230;BME280;26964;50.428;19.218;2023-02-28T07:06:14;1032.9;;;-3.2;70.7
41230;BME280;26964;50.428;19.218;2023-02-28T07:11:14;1032.9;;;-3.0;70.8
41230;BME280;26964;50.428;19.218;2023-02-28T07:16:14;1032.9;;;-2.8;70.8
41230;BME280;26964;50.428;19.218;2023-02-28T07:21:15;1032.9;;;-2.7;70.8
41230;BME280;26964;50.428;19.218;2023-02-28T07:26:16;1032.9;;;-2.5;70.8
41230;BME280;26964;50.428;19.218;2023-02-28T07:31:16;1033.0;;;-2.3;70.9
41230;BME280;26964;50.428;19.218;2023-02-28T07:36:16;1033.0;;;-2.1;70.8
41230;BME280;26964;50.428;19.218;2023-02-28T07:41:15;1033.1;;;-1.9;70.7
41230;BME280;26964;50.428;19.218;2023-02-28T07:46:16;1033.1;;;-1.7;70.7
41230;BME280;26964;50.428;19.218;2023-02-28T07:51:14;1033.0;;;-1.5;70.4
41230;BME280;26964;50.428;19.218;2023-02-28T07:56:14;1033.0;;;-1.4;70.5
41230;BME280;26964;50.428;19.218;2023-02-28T08:01:14;1033.1;;;-1.2;70.3
41230;BME280;26964;50.428;19.218;2023-02-28T08:06:18;1033.0;;;-1.1;70.4
41230;BME280;26964;50.428;19.218;2023-02-28T08:11:16;1033.0;;;-0.9;70.2
41230;BME280;26964;50.428;19.218;2023-02-28T08:16:14;1033.0;;;-0.7;70.2
41230;BME280;26964;50.428;19.218;2023-02-28T08:21:14;1033.0;;;-0.5;69.8
41230;BME280;26964;50.428;19.218;2023-02-28T08:26:14;1033.1;;;-0.4;69.7
41230;BME280;26964;50.428;19.218;2023-02-28T08:31:16;1033.0;;;-0.4;68.3
41230;BME280;26964;50.428;19.218;2023-02-28T08:36:15;1033.0;;;-0.5;68.3
41230;BME280;26964;50.428;19.218;2023-02-28T08:41:14;1033.0;;;-0.7;68.7
41230;BME280;26964;50.428;19.218;2023-02-28T08:46:14;1033.1;;;-0.7;69.0
41230;BME280;26964;50.428;19.218;2023-02-28T08:51:16;1033.1;;;-0.5;69.2
41230;BME280;26964;50.428;19.218;2023-02-28T08:56:15;1033.0;;;-0.4;69.0
41230;BME280;26964;50.428;19.218;2023-02-28T09:01:16;1033.1;;;-0.4;68.7
41230;BME280;26964;50.428;19.218;2023-02-28T09:06:16;1033.0;;;-0.5;68.8
41230;BME280;26964;50.428;19.218;2023-02-28T09:11:14;1033.0;;;-0.5;69.0
41230;BME280;26964;50.428;19.218;2023-02-28T09:16:15;1033.0;;;-0.4;68.9
41230;BME280;26964;50.428;19.218;2023-02-28T09:21:17;1033.1;;;-0.4;68.4
41230;BME280;26964;50.428;19.218;2023-02-28T09:26:15;1033.1;;;-0.5;68.3
41230;BME280;26964;50.428;19.218;2023-02-28T09:31:16;1033.1;;;-0.5;68.5
41230;BME280;26964;50.428;19.218;2023-02-28T09:36:14;1033.1;;;-0.5;68.6
41230;BME280;26964;50.428;19.218;2023-02-28T09:41:16;1033.2;;;-0.4;67.9
41230;BME280;26964;50.428;19.218;2023-02-28T09:56:19;1033.2;;;-0.2;68.5
41230;BME280;26964;50.428;19.218;2023-02-28T10:01:19;1033.1;;;0.2;68.3
41230;BME280;26964;50.428;19.218;2023-02-28T10:06:17;1033.2;;;0.4;68.4
41230;BME280;26964;50.428;19.218;2023-02-28T10:11:16;1033.2;;;0.7;68.2
41230;BME280;26964;50.428;19.218;2023-02-28T10:16:20;1033.1;;;0.9;68.0
41230;BME280;26964;50.428;19.218;2023-02-28T10:21:19;1033.1;;;0.9;66.6
41230;BME280;26964;50.428;19.218;2023-02-28T10:26:16;1033.1;;;0.8;66.7
41230;BME280;26964;50.428;19.218;2023-02-28T10:31:18;1033.0;;;0.8;66.7
41230;BME280;26964;50.428;19.218;2023-02-28T10:36:16;1033.0;;;0.6;67.2
41230;BME280;26964;50.428;19.218;2023-02-28T10:41:16;1033.0;;;0.6;66.9
41230;BME280;26964;50.428;19.218;2023-02-28T10:46:18;1033.0;;;0.5;67.1
41230;BME280;26964;50.428;19.218;2023-02-28T10:51:16;1033.0;;;0.4;67.0
41230;BME280;26964;50.428;19.218;2023-02-28T10:56:17;1032.9;;;0.4;67.3
41230;BME280;26964;50.428;19.218;2023-02-28T11:01:16;1032.8;;;0.7;67.5
41230;BME280;26964;50.428;19.218;2023-02-28T11:06:17;1032.8;;;1.1;67.6
41230;BME280;26964;50.428;19.218;2023-02-28T11:11:14;1032.8;;;1.5;66.9
41230;BME280;26964;50.428;19.218;2023-02-28T11:16:14;1032.8;;;1.8;67.2
41230;BME280;26964;50.428;19.218;2023-02-28T11:21:19;1032.7;;;2.2;67.2
41230;BME280;26964;50.428;19.218;2023-02-28T11:26:14;1032.6;;;2.5;66.9
41230;BME280;26964;50.428;19.218;2023-02-28T11:31:17;1032.5;;;2.7;66.0
41230;BME280;26964;50.428;19.218;2023-02-28T11:36:18;1032.5;;;2.6;66.5
41230;BME280;26964;50.428;19.218;2023-02-28T11:46:20;1032.5;;;2.4;64.6
41230;BME280;26964;50.428;19.218;2023-02-28T11:51:19;1032.4;;;2.3;65.6
41230;BME280;26964;50.428;19.218;2023-02-28T11:56:19;1032.4;;;2.2;65.8
41230;BME280;26964;50.428;19.218;2023-02-28T12:01:21;1032.4;;;2.1;65.4
41230;BME280;26964;50.428;19.218;2023-02-28T12:06:19;1032.4;;;2.2;66.1
41230;BME280;26964;50.428;19.218;2023-02-28T12:11:19;1032.3;;;2.2;65.4
41230;BME280;26964;50.428;19.218;2023-02-28T12:21:18;1032.2;;;2.2;65.6
41230;BME280;26964;50.428;19.218;2023-02-28T12:26:19;1032.1;;;2.3;65.6
41230;BME280;26964;50.428;19.218;2023-02-28T12:31:18;1032.0;;;2.3;64.7
41230;BME280;26964;50.428;19.218;2023-02-28T12:36:18;1032.1;;;2.2;65.2
41230;BME280;26964;50.428;19.218;2023-02-28T12:41:18;1032.0;;;2.3;65.3
41230;BME280;26964;50.428;19.218;2023-02-28T12:46:19;1031.9;;;2.2;64.7
41230;BME280;26964;50.428;19.218;2023-02-28T12:51:15;1031.8;;;2.2;65.1
41230;BME280;26964;50.428;19.218;2023-02-28T12:56:19;1031.9;;;2.2;64.6
41230;BME280;26964;50.428;19.218;2023-02-28T13:16:14;1031.8;;;2.1;63.3
41230;BME280;26964;50.428;19.218;2023-02-28T13:26:14;1031.8;;;2.1;64.4
41230;BME280;26964;50.428;19.218;2023-02-28T13:31:15;1031.7;;;2.3;64.2
41230;BME280;26964;50.428;19.218;2023-02-28T13:46:14;1031.6;;;2.4;63.7
41230;BME280;26964;50.428;19.218;2023-02-28T14:06:18;1031.5;;;2.4;62.5
41230;BME280;26964;50.428;19.218;2023-02-28T14:16:16;1031.6;;;2.3;63.0
41230;BME280;26964;50.428;19.218;2023-02-28T14:26:20;1031.5;;;2.2;62.8
41230;BME280;26964;50.428;19.218;2023-02-28T14:31:15;1031.5;;;2.2;62.3
41230;BME280;26964;50.428;19.218;2023-02-28T14:36:18;1031.3;;;2.1;62.3
41230;BME280;26964;50.428;19.218;2023-02-28T14:41:20;1031.4;;;2.1;62.3
41230;BME280;26964;50.428;19.218;2023-02-28T14:46:14;1031.4;;;2.0;62.4
41230;BME280;26964;50.428;19.218;2023-02-28T14:51:18;1031.3;;;2.0;62.3
41230;BME280;26964;50.428;19.218;2023-02-28T14:56:19;1031.4;;;2.0;62.6
41230;BME280;26964;50.428;19.218;2023-02-28T15:01:19;1031.3;;;1.9;62.6
41230;BME280;26964;50.428;19.218;2023-02-28T15:06:15;1031.3;;;1.9;62.1
41230;BME280;26964;50.428;19.218;2023-02-28T15:11:15;1031.2;;;1.8;62.3
41230;BME280;26964;50.428;19.218;2023-02-28T15:16:18;1031.3;;;1.7;61.9
41230;BME280;26964;50.428;19.218;2023-02-28T15:21:15;1031.4;;;1.7;62.0
41230;BME280;26964;50.428;19.218;2023-02-28T15:26:16;1031.3;;;1.6;61.9
41230;BME280;26964;50.428;19.218;2023-02-28T15:36:17;1031.3;;;1.5;62.1
41230;BME280;26964;50.428;19.218;2023-02-28T15:46:14;1031.3;;;1.3;62.2
41230;BME280;26964;50.428;19.218;2023-02-28T15:51:17;1031.2;;;1.2;62.3
41230;BME280;26964;50.428;19.218;2023-02-28T16:01:17;1031.3;;;0.9;62.4
41230;BME280;26964;50.428;19.218;2023-02-28T16:11:14;1031.4;;;0.6;62.4
41230;BME280;26964;50.428;19.218;2023-02-28T16:16:15;1031.3;;;0.4;62.6
41230;BME280;26964;50.428;19.218;2023-02-28T16:21:14;1031.3;;;0.3;62.6
41230;BME280;26964;50.428;19.218;2023-02-28T16:26:18;1031.4;;;0.1;62.7
41230;BME280;26964;50.428;19.218;2023-02-28T16:31:13;1031.4;;;-0.1;62.8
41230;BME280;26964;50.428;19.218;2023-02-28T16:36:15;1031.5;;;-0.3;62.9
41230;BME280;26964;50.428;19.218;2023-02-28T16:41:18;1031.5;;;-0.4;62.9
41230;BME280;26964;50.428;19.218;2023-02-28T16:46:14;1031.6;;;-0.6;62.9
41230;BME280;26964;50.428;19.218;2023-02-28T16:51:15;1031.5;;;-0.8;63.0
41230;BME280;26964;50.428;19.218;2023-02-28T16:56:16;1031.6;;;-1.0;63.1
41230;BME280;26964;50.428;19.218;2023-02-28T17:01:14;1031.7;;;-1.1;63.1
41230;BME280;26964;50.428;19.218;2023-02-28T17:06:18;1031.6;;;-1.2;63.3
41230;BME280;26964;50.428;19.218;2023-02-28T17:11:14;1031.7;;;-1.3;63.3
41230;BME280;26964;50.428;19.218;2023-02-28T17:16:19;1031.8;;;-1.4;63.4
41230;BME280;26964;50.428;19.218;2023-02-28T17:21:14;1031.7;;;-1.4;63.4
41230;BME280;26964;50.428;19.218;2023-02-28T17:26:14;1031.8;;;-1.5;63.5
41230;BME280;26964;50.428;19.218;2023-02-28T17:31:13;1031.8;;;-1.6;63.6
41230;BME280;26964;50.428;19.218;2023-02-28T17:36:14;1031.7;;;-1.7;63.6
41230;BME280;26964;50.428;19.218;2023-02-28T17:41:14;1031.8;;;-1.7;63.7
41230;BME280;26964;50.428;19.218;2023-02-28T17:46:16;1031.8;;;-1.8;63.8
41230;BME280;26964;50.428;19.218;2023-02-28T17:51:15;1031.7;;;-1.8;63.8
41230;BME280;26964;50.428;19.218;2023-02-28T17:56:16;1031.8;;;-1.9;63.9
41230;BME280;26964;50.428;19.218;2023-02-28T18:01:14;1031.8;;;-1.9;63.9
41230;BME280;26964;50.428;19.218;2023-02-28T18:06:16;1031.9;;;-2.0;63.9
41230;BME280;26964;50.428;19.218;2023-02-28T18:11:14;1031.8;;;-2.0;64.0
41230;BME280;26964;50.428;19.218;2023-02-28T18:16:15;1031.8;;;-2.1;64.1
41230;BME280;26964;50.428;19.218;2023-02-28T18:21:15;1031.8;;;-2.1;64.1
41230;BME280;26964;50.428;19.218;2023-02-28T18:31:16;1031.7;;;-2.3;64.2
41230;BME280;26964;50.428;19.218;2023-02-28T18:36:13;1031.7;;;-2.3;64.3
41230;BME280;26964;50.428;19.218;2023-02-28T18:41:14;1031.7;;;-2.3;64.4
41230;BME280;26964;50.428;19.218;2023-02-28T18:46:16;1031.7;;;-2.4;64.4
41230;BME280;26964;50.428;19.218;2023-02-28T18:51:16;1031.8;;;-2.5;64.5
41230;BME280;26964;50.428;19.218;2023-02-28T18:56:19;1031.7;;;-2.5;64.5
41230;BME280;26964;50.428;19.218;2023-02-28T19:01:16;1031.7;;;-2.7;64.6
41230;BME280;26964;50.428;19.218;2023-02-28T19:06:14;1031.7;;;-2.8;64.7
41230;BME280;26964;50.428;19.218;2023-02-28T19:11:16;1031.8;;;-2.9;64.7
41230;BME280;26964;50.428;19.218;2023-02-28T19:16:15;1031.6;;;-3.0;64.9
41230;BME280;26964;50.428;19.218;2023-02-28T19:21:15;1031.6;;;-3.0;65.0
41230;BME280;26964;50.428;19.218;2023-02-28T19:26:15;1031.6;;;-3.0;65.1
41230;BME280;26964;50.428;19.218;2023-02-28T19:31:14;1031.7;;;-3.0;65.1
41230;BME280;26964;50.428;19.218;2023-02-28T19:36:14;1031.7;;;-3.0;65.2
41230;BME280;26964;50.428;19.218;2023-02-28T19:41:15;1031.7;;;-3.0;65.2
41230;BME280;26964;50.428;19.218;2023-02-28T19:46:13;1031.7;;;-3.0;65.3
41230;BME280;26964;50.428;19.218;2023-02-28T19:51:13;1031.8;;;-3.0;65.2
41230;BME280;26964;50.428;19.218;2023-02-28T19:56:13;1031.9;;;-3.2;65.2
41230;BME280;26964;50.428;19.218;2023-02-28T20:01:15;1031.8;;;-3.3;65.3
41230;BME280;26964;50.428;19.218;2023-02-28T20:06:13;1031.8;;;-3.4;65.3
41230;BME280;26964;50.428;19.218;2023-02-28T20:11:14;1031.8;;;-3.5;65.5
41230;BME280;26964;50.428;19.218;2023-02-28T20:16:14;1031.8;;;-3.5;65.8
41230;BME280;26964;50.428;19.218;2023-02-28T20:21:14;1031.8;;;-3.5;65.8
41230;BME280;26964;50.428;19.218;2023-02-28T20:26:14;1031.8;;;-3.5;65.8
41230;BME280;26964;50.428;19.218;2023-02-28T20:31:15;1031.8;;;-3.6;65.8
41230;BME280;26964;50.428;19.218;2023-02-28T20:36:14;1031.8;;;-3.7;65.9
41230;BME280;26964;50.428;19.218;2023-02-28T20:41:13;1031.8;;;-3.7;66.0
41230;BME280;26964;50.428;19.218;2023-02-28T20:46:13;1031.7;;;-3.7;65.9
41230;BME280;26964;50.428;19.218;2023-02-28T20:51:13;1031.6;;;-3.8;66.0
41230;BME280;26964;50.428;19.218;2023-02-28T20:56:15;1031.6;;;-3.8;66.1
41230;BME280;26964;50.428;19.218;2023-02-28T21:01:21;1031.6;;;-3.9;66.1
41230;BME280;26964;50.428;19.218;2023-02-28T21:06:15;1031.6;;;-4.0;66.3
41230;BME280;26964;50.428;19.218;2023-02-28T21:11:15;1031.5;;;-4.0;66.4
41230;BME280;26964;50.428;19.218;2023-02-28T21:16:14;1031.6;;;-4.0;66.4
41230;BME280;26964;50.428;19.218;2023-02-28T21:21:14;1031.6;;;-4.0;66.4
41230;BME280;26964;50.428;19.218;2023-02-28T21:26:14;1031.6;;;-4.0;66.5
41230;BME280;26964;50.428;19.218;2023-02-28T21:31:15;1031.5;;;-4.0;66.6
41230;BME280;26964;50.428;19.218;2023-02-28T21:36:15;1031.5;;;-4.0;66.7
41230;BME280;26964;50.428;19.218;2023-02-28T21:46:15;1031.5;;;-3.8;67.1
41230;BME280;26964;50.428;19.218;2023-02-28T21:51:16;1031.6;;;-3.7;67.1
41230;BME280;26964;50.428;19.218;2023-02-28T21:56:15;1031.7;;;-3.7;67.2
41230;BME280;26964;50.428;19.218;2023-02-28T22:01:15;1031.6;;;-3.7;67.2
41230;BME280;26964;50.428;19.218;2023-02-28T22:06:16;1031.7;;;-3.7;67.1
41230;BME280;26964;50.428;19.218;2023-02-28T22:16:15;1031.6;;;-3.6;67.3
41230;BME280;26964;50.428;19.218;2023-02-28T22:21:15;1031.8;;;-3.5;67.4
41230;BME280;26964;50.428;19.218;2023-02-28T22:26:16;1031.9;;;-3.5;67.4
41230;BME280;26964;50.428;19.218;2023-02-28T22:31:15;1031.7;;;-3.5;67.4
41230;BME280;26964;50.428;19.218;2023-02-28T22:36:15;1031.9;;;-3.5;67.6
41230;BME280;26964;50.428;19.218;2023-02-28T22:41:14;1031.9;;;-3.5;67.7
41230;BME280;26964;50.428;19.218;2023-02-28T22:46:13;1032.1;;;-3.4;67.7
41230;BME280;26964;50.428;19.218;2023-02-28T22:51:14;1032.0;;;-3.4;67.6
41230;BME280;26964;50.428;19.218;2023-02-28T22:56:14;1032.0;;;-3.4;67.7
41230;BME280;26964;50.428;19.218;2023-02-28T23:01:14;1032.0;;;-3.4;67.7
41230;BME280;26964;50.428;19.218;2023-02-28T23:06:16;1032.0;;;-3.5;67.6
41230;BME280;26964;50.428;19.218;2023-02-28T23:11:17;1032.0;;;-3.5;67.7
41230;BME280;26964;50.428;19.218;2023-02-28T23:16:13;1031.9;;;-3.6;67.8
41230;BME280;26964;50.428;19.218;2023-02-28T23:21:13;1032.1;;;-3.7;67.9
41230;BME280;26964;50.428;19.218;2023-02-28T23:26:13;1032.1;;;-3.7;68.1
41230;BME280;26964;50.428;19.218;2023-02-28T23:31:13;1032.1;;;-3.7;68.1
41230;BME280;26964;50.428;19.218;2023-02-28T23:36:14;1031.9;;;-3.7;68.2
41230;BME280;26964;50.428;19.218;2023-02-28T23:41:13;1032.0;;;-3.8;68.1
41230;BME280;26964;50.428;19.218;2023-02-28T23:46:13;1031.9;;;-3.8;68.2
41230;BME280;26964;50.428;19.218;2023-02-28T23:51:14;1032.0;;;-3.8;68.2
41230;BME280;26964;50.428;19.218;2023-02-28T23:56:15;1031.7;;;-3.8;68.3
